sensor_id;sensor_type;location;lat;lon;timestamp;temperature;humidity
61004;DHT22;46889;37.310;13.582;2022-11-15T00:01:16;15.70;99.90
61004;DHT22;46889;37.310;13.582;2022-11-15T00:03:43;15.70;99.90
61004;DHT22;46889;37.310;13.582;2022-11-15T00:06:12;15.70;99.90
61004;DHT22;46889;37.310;13.582;2022-11-15T00:08:38;15.70;99.90
61004;DHT22;46889;37.310;13.582;2022-11-15T00:11:05;15.60;99.90
61004;DHT22;46889;37.310;13.582;2022-11-15T00:13:31;15.60;99.90
61004;DHT22;46889;37.310;13.582;2022-11-15T00:15:58;15.60;99.90
61004;DHT22;46889;37.310;13.582;2022-11-15T00:18:29;15.60;99.90
61004;DHT22;46889;37.310;13.582;2022-11-15T00:20:56;15.60;99.90
61004;DHT22;46889;37.310;13.582;2022-11-15T00:23:28;15.60;99.90
61004;DHT22;46889;37.310;13.582;2022-11-15T00:25:58;15.60;99.90
61004;DHT22;46889;37.310;13.582;2022-11-15T00:28:26;15.60;99.90
61004;DHT22;46889;37.310;13.582;2022-11-15T00:30:53;15.50;99.90
61004;DHT22;46889;37.310;13.582;2022-11-15T00:33:20;15.50;99.90
61004;DHT22;46889;37.310;13.582;2022-11-15T00:35:46;15.50;99.90
61004;DHT22;46889;37.310;13.582;2022-11-15T00:38:16;15.50;99.90
61004;DHT22;46889;37.310;13.582;2022-11-15T00:40:41;15.40;99.90
61004;DHT22;46889;37.310;13.582;2022-11-15T00:43:07;15.40;99.90
61004;DHT22;46889;37.310;13.582;2022-11-15T00:45:34;15.30;99.90
61004;DHT22;46889;37.310;13.582;2022-11-15T00:48:00;15.30;99.90
61004;DHT22;46889;37.310;13.582;2022-11-15T00:50:26;15.30;99.90
61004;DHT22;46889;37.310;13.582;2022-11-15T00:52:53;15.30;99.90
61004;DHT22;46889;37.310;13.582;2022-11-15T00:55:19;15.30;99.90
61004;DHT22;46889;37.310;13.582;2022-11-15T00:57:48;15.20;99.90
61004;DHT22;46889;37.310;13.582;2022-11-15T01:00:14;15.20;99.90
61004;DHT22;46889;37.310;13.582;2022-11-15T01:02:40;15.20;99.90
61004;DHT22;46889;37.310;13.582;2022-11-15T01:05:06;15.20;99.90
61004;DHT22;46889;37.310;13.582;2022-11-15T01:07:33;15.20;99.90
61004;DHT22;46889;37.310;13.582;2022-11-15T01:09:59;15.20;99.90
61004;DHT22;46889;37.310;13.582;2022-11-15T01:12:25;15.10;99.90
61004;DHT22;46889;37.310;13.582;2022-11-15T01:14:53;15.10;99.90
61004;DHT22;46889;37.310;13.582;2022-11-15T01:17:19;15.10;99.90
61004;DHT22;46889;37.310;13.582;2022-11-15T01:19:45;15.00;99.90
61004;DHT22;46889;37.310;13.582;2022-11-15T01:22:13;15.10;99.90
61004;DHT22;46889;37.310;13.582;2022-11-15T01:24:42;15.00;99.90
61004;DHT22;46889;37.310;13.582;2022-11-15T01:27:11;15.00;99.90
61004;DHT22;46889;37.310;13.582;2022-11-15T01:29:37;14.90;99.90
61004;DHT22;46889;37.310;13.582;2022-11-15T01:32:06;14.90;99.90
61004;DHT22;46889;37.310;13.582;2022-11-15T01:34:33;14.90;99.90
61004;DHT22;46889;37.310;13.582;2022-11-15T01:37:01;14.90;99.90
61004;DHT22;46889;37.310;13.582;2022-11-15T01:39:27;14.90;99.90
61004;DHT22;46889;37.310;13.582;2022-11-15T01:41:53;14.80;99.90
61004;DHT22;46889;37.310;13.582;2022-11-15T01:44:48;14.90;99.90
61004;DHT22;46889;37.310;13.582;2022-11-15T01:47:31;14.90;99.90
61004;DHT22;46889;37.310;13.582;2022-11-15T01:50:02;14.90;99.90
61004;DHT22;46889;37.310;13.582;2022-11-15T01:52:32;14.90;99.90
61004;DHT22;46889;37.310;13.582;2022-11-15T01:55:08;14.80;99.90
61004;DHT22;46889;37.310;13.582;2022-11-15T01:57:35;14.80;99.90
61004;DHT22;46889;37.310;13.582;2022-11-15T02:00:03;14.80;99.90
61004;DHT22;46889;37.310;13.582;2022-11-15T02:02:32;14.80;99.90
61004;DHT22;46889;37.310;13.582;2022-11-15T02:04:59;14.80;99.90
61004;DHT22;46889;37.310;13.582;2022-11-15T02:07:28;14.70;99.90
61004;DHT22;46889;37.310;13.582;2022-11-15T02:10:04;14.70;99.90
61004;DHT22;46889;37.310;13.582;2022-11-15T02:12:33;14.70;99.90
61004;DHT22;46889;37.310;13.582;2022-11-15T02:14:59;14.70;99.90
61004;DHT22;46889;37.310;13.582;2022-11-15T02:17:33;14.70;99.90
61004;DHT22;46889;37.310;13.582;2022-11-15T02:25:48;14.70;99.90
61004;DHT22;46889;37.310;13.582;2022-11-15T02:28:56;14.70;99.90
61004;DHT22;46889;37.310;13.582;2022-11-15T02:43:16;14.90;99.90
61004;DHT22;46889;37.310;13.582;2022-11-15T02:49:31;15.00;99.90
61004;DHT22;46889;37.310;13.582;2022-11-15T02:51:58;14.90;99.90
61004;DHT22;46889;37.310;13.582;2022-11-15T02:54:30;14.80;99.90
61004;DHT22;46889;37.310;13.582;2022-11-15T02:57:07;14.80;99.90
61004;DHT22;46889;37.310;13.582;2022-11-15T03:05:23;14.70;99.90
61004;DHT22;46889;37.310;13.582;2022-11-15T03:08:10;14.60;99.90
61004;DHT22;46889;37.310;13.582;2022-11-15T03:19:14;14.60;99.90
61004;DHT22;46889;37.310;13.582;2022-11-15T03:21:43;14.70;99.90
61004;DHT22;46889;37.310;13.582;2022-11-15T03:24:12;14.70;99.90
61004;DHT22;46889;37.310;13.582;2022-11-15T03:26:42;14.70;99.90
61004;DHT22;46889;37.310;13.582;2022-11-15T03:29:24;14.70;99.90
61004;DHT22;46889;37.310;13.582;2022-11-15T03:31:59;14.70;99.90
61004;DHT22;46889;37.310;13.582;2022-11-15T03:34:33;14.70;99.90
61004;DHT22;46889;37.310;13.582;2022-11-15T03:37:00;14.70;99.90
61004;DHT22;46889;37.310;13.582;2022-11-15T03:39:28;14.70;99.90
61004;DHT22;46889;37.310;13.582;2022-11-15T03:42:26;14.80;99.90
61004;DHT22;46889;37.310;13.582;2022-11-15T03:48:18;14.80;99.90
61004;DHT22;46889;37.310;13.582;2022-11-15T03:51:03;14.70;99.90
61004;DHT22;46889;37.310;13.582;2022-11-15T03:53:30;14.70;99.90
61004;DHT22;46889;37.310;13.582;2022-11-15T03:55:57;14.70;99.90
61004;DHT22;46889;37.310;13.582;2022-11-15T03:58:24;14.70;99.90
61004;DHT22;46889;37.310;13.582;2022-11-15T04:01:09;14.60;99.90
61004;DHT22;46889;37.310;13.582;2022-11-15T04:03:37;14.60;99.90
61004;DHT22;46889;37.310;13.582;2022-11-15T04:06:23;14.60;99.90
61004;DHT22;46889;37.310;13.582;2022-11-15T04:08:49;14.50;99.90
61004;DHT22;46889;37.310;13.582;2022-11-15T04:11:16;14.50;99.90
61004;DHT22;46889;37.310;13.582;2022-11-15T04:13:43;14.60;99.90
61004;DHT22;46889;37.310;13.582;2022-11-15T04:16:09;14.60;99.90
61004;DHT22;46889;37.310;13.582;2022-11-15T04:18:35;14.60;99.90
61004;DHT22;46889;37.310;13.582;2022-11-15T04:21:01;14.60;99.90
61004;DHT22;46889;37.310;13.582;2022-11-15T04:23:46;14.60;99.90
61004;DHT22;46889;37.310;13.582;2022-11-15T04:26:21;14.60;99.90
61004;DHT22;46889;37.310;13.582;2022-11-15T04:28:49;14.60;99.90
61004;DHT22;46889;37.310;13.582;2022-11-15T04:31:33;14.60;99.90
61004;DHT22;46889;37.310;13.582;2022-11-15T04:33:59;14.60;99.90
61004;DHT22;46889;37.310;13.582;2022-11-15T04:36:25;14.60;99.90
61004;DHT22;46889;37.310;13.582;2022-11-15T04:39:30;14.70;99.90
61004;DHT22;46889;37.310;13.582;2022-11-15T04:42:16;14.80;99.90
61004;DHT22;46889;37.310;13.582;2022-11-15T04:44:42;14.70;99.90
61004;DHT22;46889;37.310;13.582;2022-11-15T04:47:08;14.60;99.90
61004;DHT22;46889;37.310;13.582;2022-11-15T04:49:34;14.50;99.90
61004;DHT22;46889;37.310;13.582;2022-11-15T04:52:00;14.50;99.90
61004;DHT22;46889;37.310;13.582;2022-11-15T04:54:50;14.60;99.90
61004;DHT22;46889;37.310;13.582;2022-11-15T04:57:16;14.50;99.90
61004;DHT22;46889;37.310;13.582;2022-11-15T04:59:43;14.60;99.90
61004;DHT22;46889;37.310;13.582;2022-11-15T05:02:28;14.60;99.90
61004;DHT22;46889;37.310;13.582;2022-11-15T05:05:14;14.60;99.90
61004;DHT22;46889;37.310;13.582;2022-11-15T05:07:44;14.60;99.90
61004;DHT22;46889;37.310;13.582;2022-11-15T05:10:11;14.60;99.90
61004;DHT22;46889;37.310;13.582;2022-11-15T05:12:58;14.60;99.90
61004;DHT22;46889;37.310;13.582;2022-11-15T05:15:24;14.70;99.90
61004;DHT22;46889;37.310;13.582;2022-11-15T05:18:10;14.60;99.90
61004;DHT22;46889;37.310;13.582;2022-11-15T05:21:02;14.60;99.90
61004;DHT22;46889;37.310;13.582;2022-11-15T05:23:28;14.60;99.90
61004;DHT22;46889;37.310;13.582;2022-11-15T05:26:16;14.70;99.90
61004;DHT22;46889;37.310;13.582;2022-11-15T05:28:43;14.70;99.90
61004;DHT22;46889;37.310;13.582;2022-11-15T05:31:12;14.70;99.90
61004;DHT22;46889;37.310;13.582;2022-11-15T05:33:58;14.70;99.90
61004;DHT22;46889;37.310;13.582;2022-11-15T05:36:37;14.60;99.90
61004;DHT22;46889;37.310;13.582;2022-11-15T05:39:05;14.70;99.90
61004;DHT22;46889;37.310;13.582;2022-11-15T05:41:53;14.60;99.90
61004;DHT22;46889;37.310;13.582;2022-11-15T05:44:22;14.70;99.90
61004;DHT22;46889;37.310;13.582;2022-11-15T05:46:51;14.70;99.90
61004;DHT22;46889;37.310;13.582;2022-11-15T05:49:21;14.80;99.90
61004;DHT22;46889;37.310;13.582;2022-11-15T05:51:50;14.90;99.90
61004;DHT22;46889;37.310;13.582;2022-11-15T05:54:17;15.00;99.90
61004;DHT22;46889;37.310;13.582;2022-11-15T05:56:46;15.00;99.90
61004;DHT22;46889;37.310;13.582;2022-11-15T05:59:12;15.20;99.90
61004;DHT22;46889;37.310;13.582;2022-11-15T06:01:43;15.20;99.90
61004;DHT22;46889;37.310;13.582;2022-11-15T06:04:09;15.30;99.90
61004;DHT22;46889;37.310;13.582;2022-11-15T06:06:35;15.40;99.90
61004;DHT22;46889;37.310;13.582;2022-11-15T06:09:02;15.40;99.90
61004;DHT22;46889;37.310;13.582;2022-11-15T06:11:30;15.50;99.90
61004;DHT22;46889;37.310;13.582;2022-11-15T06:13:57;15.70;99.90
61004;DHT22;46889;37.310;13.582;2022-11-15T06:16:23;16.00;99.90
61004;DHT22;46889;37.310;13.582;2022-11-15T06:18:49;16.40;99.90
61004;DHT22;46889;37.310;13.582;2022-11-15T06:21:17;16.80;99.90
61004;DHT22;46889;37.310;13.582;2022-11-15T06:23:43;17.20;99.90
61004;DHT22;46889;37.310;13.582;2022-11-15T06:26:10;17.70;99.90
61004;DHT22;46889;37.310;13.582;2022-11-15T06:28:40;18.00;99.90
61004;DHT22;46889;37.310;13.582;2022-11-15T06:31:09;17.80;99.90
61004;DHT22;46889;37.310;13.582;2022-11-15T06:33:37;17.90;99.90
61004;DHT22;46889;37.310;13.582;2022-11-15T06:36:13;17.90;99.90
61004;DHT22;46889;37.310;13.582;2022-11-15T06:38:45;18.20;99.90
61004;DHT22;46889;37.310;13.582;2022-11-15T06:41:12;18.20;99.90
61004;DHT22;46889;37.310;13.582;2022-11-15T06:43:42;18.10;99.90
61004;DHT22;46889;37.310;13.582;2022-11-15T06:46:08;17.80;99.90
61004;DHT22;46889;37.310;13.582;2022-11-15T06:48:36;17.60;99.90
61004;DHT22;46889;37.310;13.582;2022-11-15T06:51:05;17.50;99.90
61004;DHT22;46889;37.310;13.582;2022-11-15T06:53:31;17.30;99.90
61004;DHT22;46889;37.310;13.582;2022-11-15T06:56:01;17.20;99.90
61004;DHT22;46889;37.310;13.582;2022-11-15T06:58:27;17.00;99.90
61004;DHT22;46889;37.310;13.582;2022-11-15T07:00:59;17.00;99.90
61004;DHT22;46889;37.310;13.582;2022-11-15T07:03:26;16.90;99.90
61004;DHT22;46889;37.310;13.582;2022-11-15T07:05:54;16.90;99.90
61004;DHT22;46889;37.310;13.582;2022-11-15T07:08:22;16.90;99.90
61004;DHT22;46889;37.310;13.582;2022-11-15T07:11:11;16.90;99.90
61004;DHT22;46889;37.310;13.582;2022-11-15T07:13:44;16.90;99.90
61004;DHT22;46889;37.310;13.582;2022-11-15T07:16:11;16.80;99.90
61004;DHT22;46889;37.310;13.582;2022-11-15T07:18:40;17.00;99.90
61004;DHT22;46889;37.310;13.582;2022-11-15T07:21:10;17.20;99.90
61004;DHT22;46889;37.310;13.582;2022-11-15T07:23:39;17.70;99.90
61004;DHT22;46889;37.310;13.582;2022-11-15T07:26:17;18.00;99.90
61004;DHT22;46889;37.310;13.582;2022-11-15T07:28:46;18.50;99.90
61004;DHT22;46889;37.310;13.582;2022-11-15T07:31:13;18.90;99.90
61004;DHT22;46889;37.310;13.582;2022-11-15T07:33:44;18.90;99.90
61004;DHT22;46889;37.310;13.582;2022-11-15T07:36:12;19.00;99.90
61004;DHT22;46889;37.310;13.582;2022-11-15T07:38:40;18.90;99.90
61004;DHT22;46889;37.310;13.582;2022-11-15T07:41:06;18.80;99.90
61004;DHT22;46889;37.310;13.582;2022-11-15T07:43:33;18.70;99.90
61004;DHT22;46889;37.310;13.582;2022-11-15T07:46:05;18.70;99.90
61004;DHT22;46889;37.310;13.582;2022-11-15T07:48:32;18.70;99.90
61004;DHT22;46889;37.310;13.582;2022-11-15T07:51:15;18.50;99.90
61004;DHT22;46889;37.310;13.582;2022-11-15T07:53:45;18.40;99.90
61004;DHT22;46889;37.310;13.582;2022-11-15T07:56:13;18.40;99.90
61004;DHT22;46889;37.310;13.582;2022-11-15T07:58:39;18.30;99.90
61004;DHT22;46889;37.310;13.582;2022-11-15T08:01:07;18.30;99.90
61004;DHT22;46889;37.310;13.582;2022-11-15T08:03:34;18.20;99.90
61004;DHT22;46889;37.310;13.582;2022-11-15T08:06:00;18.10;99.90
61004;DHT22;46889;37.310;13.582;2022-11-15T08:08:27;17.90;99.90
61004;DHT22;46889;37.310;13.582;2022-11-15T08:10:54;17.80;99.90
61004;DHT22;46889;37.310;13.582;2022-11-15T08:13:20;17.80;99.90
61004;DHT22;46889;37.310;13.582;2022-11-15T08:15:46;17.90;99.90
61004;DHT22;46889;37.310;13.582;2022-11-15T08:18:14;18.00;99.90
61004;DHT22;46889;37.310;13.582;2022-11-15T08:20:42;18.00;99.90
61004;DHT22;46889;37.310;13.582;2022-11-15T08:23:11;18.10;99.90
61004;DHT22;46889;37.310;13.582;2022-11-15T08:25:38;18.30;99.90
61004;DHT22;46889;37.310;13.582;2022-11-15T08:28:07;18.50;99.90
61004;DHT22;46889;37.310;13.582;2022-11-15T08:30:42;18.90;99.90
61004;DHT22;46889;37.310;13.582;2022-11-15T08:33:14;19.10;99.90
61004;DHT22;46889;37.310;13.582;2022-11-15T08:35:41;19.20;99.90
61004;DHT22;46889;37.310;13.582;2022-11-15T08:38:08;19.40;99.90
61004;DHT22;46889;37.310;13.582;2022-11-15T08:40:36;19.50;99.90
61004;DHT22;46889;37.310;13.582;2022-11-15T08:43:02;19.60;99.90
61004;DHT22;46889;37.310;13.582;2022-11-15T08:45:33;19.60;99.90
61004;DHT22;46889;37.310;13.582;2022-11-15T08:48:01;19.50;99.90
61004;DHT22;46889;37.310;13.582;2022-11-15T08:50:29;19.50;99.90
61004;DHT22;46889;37.310;13.582;2022-11-15T08:52:56;19.40;99.90
61004;DHT22;46889;37.310;13.582;2022-11-15T08:55:23;19.40;99.90
61004;DHT22;46889;37.310;13.582;2022-11-15T08:57:50;19.30;99.90
61004;DHT22;46889;37.310;13.582;2022-11-15T09:00:20;19.30;99.90
61004;DHT22;46889;37.310;13.582;2022-11-15T09:02:48;19.30;99.90
61004;DHT22;46889;37.310;13.582;2022-11-15T09:05:15;19.60;99.90
61004;DHT22;46889;37.310;13.582;2022-11-15T09:07:41;19.90;99.90
61004;DHT22;46889;37.310;13.582;2022-11-15T09:10:08;20.00;99.90
61004;DHT22;46889;37.310;13.582;2022-11-15T09:12:35;20.00;99.90
61004;DHT22;46889;37.310;13.582;2022-11-15T09:15:02;20.10;99.90
61004;DHT22;46889;37.310;13.582;2022-11-15T09:17:28;20.10;99.90
61004;DHT22;46889;37.310;13.582;2022-11-15T09:19:54;20.40;99.90
61004;DHT22;46889;37.310;13.582;2022-11-15T09:22:21;20.50;99.90
61004;DHT22;46889;37.310;13.582;2022-11-15T09:24:48;20.50;99.90
61004;DHT22;46889;37.310;13.582;2022-11-15T09:27:15;20.50;99.90
61004;DHT22;46889;37.310;13.582;2022-11-15T09:29:41;20.60;99.90
61004;DHT22;46889;37.310;13.582;2022-11-15T09:32:07;20.60;99.90
61004;DHT22;46889;37.310;13.582;2022-11-15T09:34:35;20.60;99.90
61004;DHT22;46889;37.310;13.582;2022-11-15T09:37:02;20.70;99.90
61004;DHT22;46889;37.310;13.582;2022-11-15T09:39:29;20.60;99.90
61004;DHT22;46889;37.310;13.582;2022-11-15T09:49:40;20.30;99.90
61004;DHT22;46889;37.310;13.582;2022-11-15T09:52:07;20.40;99.90
61004;DHT22;46889;37.310;13.582;2022-11-15T09:54:38;20.30;99.90
61004;DHT22;46889;37.310;13.582;2022-11-15T09:57:13;20.40;99.90
61004;DHT22;46889;37.310;13.582;2022-11-15T10:05:22;21.30;99.90
61004;DHT22;46889;37.310;13.582;2022-11-15T10:10:45;22.10;99.90
61004;DHT22;46889;37.310;13.582;2022-11-15T10:13:23;22.30;99.90
61004;DHT22;46889;37.310;13.582;2022-11-15T10:15:57;22.80;99.90
61004;DHT22;46889;37.310;13.582;2022-11-15T10:21:40;23.60;99.90
61004;DHT22;46889;37.310;13.582;2022-11-15T10:24:27;23.80;99.90
61004;DHT22;46889;37.310;13.582;2022-11-15T10:26:55;23.90;99.90
61004;DHT22;46889;37.310;13.582;2022-11-15T10:29:23;24.00;99.90
61004;DHT22;46889;37.310;13.582;2022-11-15T10:31:50;23.90;99.90
61004;DHT22;46889;37.310;13.582;2022-11-15T10:34:20;23.40;99.90
61004;DHT22;46889;37.310;13.582;2022-11-15T10:36:57;23.40;99.90
61004;DHT22;46889;37.310;13.582;2022-11-15T10:39:23;23.30;99.90
61004;DHT22;46889;37.310;13.582;2022-11-15T10:41:50;23.30;99.90
61004;DHT22;46889;37.310;13.582;2022-11-15T10:46:47;23.30;99.90
61004;DHT22;46889;37.310;13.582;2022-11-15T10:49:27;23.30;99.90
61004;DHT22;46889;37.310;13.582;2022-11-15T10:52:01;23.10;99.90
61004;DHT22;46889;37.310;13.582;2022-11-15T10:54:35;23.30;99.90
61004;DHT22;46889;37.310;13.582;2022-11-15T10:57:23;23.40;99.90
61004;DHT22;46889;37.310;13.582;2022-11-15T11:00:27;23.30;99.90
61004;DHT22;46889;37.310;13.582;2022-11-15T11:03:05;23.30;99.90
61004;DHT22;46889;37.310;13.582;2022-11-15T11:05:39;23.10;99.90
61004;DHT22;46889;37.310;13.582;2022-11-15T11:08:23;23.30;99.90
61004;DHT22;46889;37.310;13.582;2022-11-15T11:11:01;23.40;99.90
61004;DHT22;46889;37.310;13.582;2022-11-15T11:13:35;23.40;99.90
61004;DHT22;46889;37.310;13.582;2022-11-15T11:16:14;23.60;99.90
61004;DHT22;46889;37.310;13.582;2022-11-15T11:19:04;23.70;99.90
61004;DHT22;46889;37.310;13.582;2022-11-15T11:27:33;23.70;99.90
61004;DHT22;46889;37.310;13.582;2022-11-15T11:30:30;23.70;99.90
61004;DHT22;46889;37.310;13.582;2022-11-15T11:33:08;23.70;99.90
61004;DHT22;46889;37.310;13.582;2022-11-15T11:38:34;23.90;99.90
61004;DHT22;46889;37.310;13.582;2022-11-15T11:44:17;23.40;99.90
61004;DHT22;46889;37.310;13.582;2022-11-15T11:47:09;23.50;99.90
61004;DHT22;46889;37.310;13.582;2022-11-15T11:55:23;23.70;99.90
61004;DHT22;46889;37.310;13.582;2022-11-15T12:03:38;23.40;99.90
61004;DHT22;46889;37.310;13.582;2022-11-15T12:14:30;22.70;99.90
61004;DHT22;46889;37.310;13.582;2022-11-15T12:16:58;22.70;99.90
61004;DHT22;46889;37.310;13.582;2022-11-15T12:19:24;22.80;99.90
61004;DHT22;46889;37.310;13.582;2022-11-15T12:22:19;22.80;99.90
61004;DHT22;46889;37.310;13.582;2022-11-15T12:24:58;23.10;99.90
61004;DHT22;46889;37.310;13.582;2022-11-15T12:27:45;23.00;99.90
61004;DHT22;46889;37.310;13.582;2022-11-15T12:30:17;23.20;99.90
61004;DHT22;46889;37.310;13.582;2022-11-15T12:32:57;23.40;99.90
61004;DHT22;46889;37.310;13.582;2022-11-15T12:35:34;23.50;99.90
61004;DHT22;46889;37.310;13.582;2022-11-15T12:38:01;23.70;99.90
61004;DHT22;46889;37.310;13.582;2022-11-15T12:40:30;23.80;99.90
61004;DHT22;46889;37.310;13.582;2022-11-15T12:45:33;23.80;99.90
61004;DHT22;46889;37.310;13.582;2022-11-15T12:51:01;23.70;99.90
61004;DHT22;46889;37.310;13.582;2022-11-15T12:53:32;23.60;99.90
61004;DHT22;46889;37.310;13.582;2022-11-15T12:56:22;23.40;99.90
61004;DHT22;46889;37.310;13.582;2022-11-15T12:58:55;23.40;99.90
61004;DHT22;46889;37.310;13.582;2022-11-15T13:06:49;23.50;99.90
61004;DHT22;46889;37.310;13.582;2022-11-15T13:12:11;23.40;99.90
61004;DHT22;46889;37.310;13.582;2022-11-15T13:18:35;23.10;99.90
61004;DHT22;46889;37.310;13.582;2022-11-15T13:21:02;23.00;99.90
61004;DHT22;46889;37.310;13.582;2022-11-15T13:23:53;22.90;99.90
61004;DHT22;46889;37.310;13.582;2022-11-15T13:26:27;22.90;99.90
61004;DHT22;46889;37.310;13.582;2022-11-15T13:28:53;22.80;99.90
61004;DHT22;46889;37.310;13.582;2022-11-15T13:34:02;22.70;99.90
61004;DHT22;46889;37.310;13.582;2022-11-15T13:36:32;22.80;99.90
61004;DHT22;46889;37.310;13.582;2022-11-15T13:39:03;22.80;99.90
61004;DHT22;46889;37.310;13.582;2022-11-15T13:41:36;22.80;99.90
61004;DHT22;46889;37.310;13.582;2022-11-15T13:44:19;22.70;99.90
61004;DHT22;46889;37.310;13.582;2022-11-15T13:46:46;22.70;99.90
61004;DHT22;46889;37.310;13.582;2022-11-15T13:49:12;22.60;99.90
61004;DHT22;46889;37.310;13.582;2022-11-15T13:51:47;22.60;99.90
61004;DHT22;46889;37.310;13.582;2022-11-15T13:57:02;22.50;99.90
61004;DHT22;46889;37.310;13.582;2022-11-15T13:59:33;22.60;99.90
61004;DHT22;46889;37.310;13.582;2022-11-15T14:02:11;22.60;99.90
61004;DHT22;46889;37.310;13.582;2022-11-15T14:04:42;22.50;99.90
61004;DHT22;46889;37.310;13.582;2022-11-15T14:07:17;22.50;99.90
61004;DHT22;46889;37.310;13.582;2022-11-15T14:09:45;22.60;99.90
61004;DHT22;46889;37.310;13.582;2022-11-15T14:15:01;22.60;99.90
61004;DHT22;46889;37.310;13.582;2022-11-15T14:19:55;22.10;99.90
61004;DHT22;46889;37.310;13.582;2022-11-15T14:22:23;22.00;99.90
61004;DHT22;46889;37.310;13.582;2022-11-15T14:27:36;21.90;99.90
61004;DHT22;46889;37.310;13.582;2022-11-15T14:30:03;21.90;99.90
61004;DHT22;46889;37.310;13.582;2022-11-15T14:32:47;21.90;99.90
61004;DHT22;46889;37.310;13.582;2022-11-15T14:35:19;21.90;99.90
61004;DHT22;46889;37.310;13.582;2022-11-15T14:37:46;21.90;99.90
61004;DHT22;46889;37.310;13.582;2022-11-15T14:40:20;21.80;99.90
61004;DHT22;46889;37.310;13.582;2022-11-15T14:42:50;21.80;99.90
61004;DHT22;46889;37.310;13.582;2022-11-15T14:47:48;21.90;99.90
61004;DHT22;46889;37.310;13.582;2022-11-15T14:50:18;21.90;99.90
61004;DHT22;46889;37.310;13.582;2022-11-15T14:52:50;21.90;99.90
61004;DHT22;46889;37.310;13.582;2022-11-15T14:55:41;22.00;99.90
61004;DHT22;46889;37.310;13.582;2022-11-15T14:58:10;22.00;99.90
61004;DHT22;46889;37.310;13.582;2022-11-15T15:03:23;21.80;99.90
61004;DHT22;46889;37.310;13.582;2022-11-15T15:05:52;21.60;99.90
61004;DHT22;46889;37.310;13.582;2022-11-15T15:08:18;21.60;99.90
61004;DHT22;46889;37.310;13.582;2022-11-15T15:10:45;21.50;99.90
61004;DHT22;46889;37.310;13.582;2022-11-15T15:13:19;21.50;99.90
61004;DHT22;46889;37.310;13.582;2022-11-15T15:15:55;21.40;99.90
61004;DHT22;46889;37.310;13.582;2022-11-15T15:18:21;21.20;99.90
61004;DHT22;46889;37.310;13.582;2022-11-15T15:20:58;21.10;99.90
61004;DHT22;46889;37.310;13.582;2022-11-15T15:23:35;21.00;99.90
61004;DHT22;46889;37.310;13.582;2022-11-15T15:26:01;20.90;99.90
61004;DHT22;46889;37.310;13.582;2022-11-15T15:28:28;20.80;99.90
61004;DHT22;46889;37.310;13.582;2022-11-15T15:30:54;20.70;99.90
61004;DHT22;46889;37.310;13.582;2022-11-15T15:33:20;20.50;99.90
61004;DHT22;46889;37.310;13.582;2022-11-15T15:35:46;20.40;99.90
61004;DHT22;46889;37.310;13.582;2022-11-15T15:38:12;20.40;99.90
61004;DHT22;46889;37.310;13.582;2022-11-15T15:40:41;20.30;99.90
61004;DHT22;46889;37.310;13.582;2022-11-15T15:43:07;20.20;99.90
61004;DHT22;46889;37.310;13.582;2022-11-15T15:45:37;20.20;99.90
61004;DHT22;46889;37.310;13.582;2022-11-15T15:48:03;20.10;99.90
61004;DHT22;46889;37.310;13.582;2022-11-15T15:50:33;20.00;99.90
61004;DHT22;46889;37.310;13.582;2022-11-15T15:53:02;19.90;99.90
61004;DHT22;46889;37.310;13.582;2022-11-15T15:55:28;19.90;99.90
61004;DHT22;46889;37.310;13.582;2022-11-15T15:58:12;19.80;99.90
61004;DHT22;46889;37.310;13.582;2022-11-15T16:00:38;19.80;99.90
61004;DHT22;46889;37.310;13.582;2022-11-15T16:03:04;19.70;99.90
61004;DHT22;46889;37.310;13.582;2022-11-15T16:05:31;19.60;99.90
61004;DHT22;46889;37.310;13.582;2022-11-15T16:07:57;19.60;99.90
61004;DHT22;46889;37.310;13.582;2022-11-15T16:10:32;19.60;99.90
61004;DHT22;46889;37.310;13.582;2022-11-15T16:13:00;19.70;99.90
61004;DHT22;46889;37.310;13.582;2022-11-15T16:15:30;19.60;99.90
61004;DHT22;46889;37.310;13.582;2022-11-15T16:17:58;19.60;99.90
61004;DHT22;46889;37.310;13.582;2022-11-15T16:23:05;19.50;99.90
61004;DHT22;46889;37.310;13.582;2022-11-15T16:25:51;19.50;99.90
61004;DHT22;46889;37.310;13.582;2022-11-15T16:28:22;19.40;99.90
61004;DHT22;46889;37.310;13.582;2022-11-15T16:30:49;19.30;99.90
61004;DHT22;46889;37.310;13.582;2022-11-15T16:33:16;19.30;99.90
61004;DHT22;46889;37.310;13.582;2022-11-15T16:35:43;19.20;99.90
61004;DHT22;46889;37.310;13.582;2022-11-15T16:38:14;19.10;99.90
61004;DHT22;46889;37.310;13.582;2022-11-15T16:40:42;19.10;99.90
61004;DHT22;46889;37.310;13.582;2022-11-15T16:43:11;19.10;99.90
61004;DHT22;46889;37.310;13.582;2022-11-15T16:45:40;19.10;99.90
61004;DHT22;46889;37.310;13.582;2022-11-15T16:48:07;19.10;99.90
61004;DHT22;46889;37.310;13.582;2022-11-15T16:50:40;19.00;99.90
61004;DHT22;46889;37.310;13.582;2022-11-15T16:53:12;19.00;99.90
61004;DHT22;46889;37.310;13.582;2022-11-15T16:55:38;19.00;99.90
61004;DHT22;46889;37.310;13.582;2022-11-15T16:58:04;19.00;99.90
61004;DHT22;46889;37.310;13.582;2022-11-15T17:00:48;19.00;99.90
61004;DHT22;46889;37.310;13.582;2022-11-15T17:03:15;18.90;99.90
61004;DHT22;46889;37.310;13.582;2022-11-15T17:05:41;18.90;99.90
61004;DHT22;46889;37.310;13.582;2022-11-15T17:08:14;18.90;99.90
61004;DHT22;46889;37.310;13.582;2022-11-15T17:10:46;18.90;99.90
61004;DHT22;46889;37.310;13.582;2022-11-15T17:13:12;18.80;99.90
61004;DHT22;46889;37.310;13.582;2022-11-15T17:15:45;18.80;99.90
61004;DHT22;46889;37.310;13.582;2022-11-15T17:18:12;18.80;99.90
61004;DHT22;46889;37.310;13.582;2022-11-15T17:20:40;18.90;99.90
61004;DHT22;46889;37.310;13.582;2022-11-15T17:23:13;18.80;99.90
61004;DHT22;46889;37.310;13.582;2022-11-15T17:25:39;18.90;99.90
61004;DHT22;46889;37.310;13.582;2022-11-15T17:28:05;18.80;99.90
61004;DHT22;46889;37.310;13.582;2022-11-15T17:30:32;18.80;99.90
61004;DHT22;46889;37.310;13.582;2022-11-15T17:33:07;18.80;99.90
61004;DHT22;46889;37.310;13.582;2022-11-15T17:35:33;18.80;99.90
61004;DHT22;46889;37.310;13.582;2022-11-15T17:37:59;18.80;99.90
61004;DHT22;46889;37.310;13.582;2022-11-15T17:40:31;18.80;99.90
61004;DHT22;46889;37.310;13.582;2022-11-15T17:42:57;18.80;99.90
61004;DHT22;46889;37.310;13.582;2022-11-15T17:45:23;18.70;99.90
61004;DHT22;46889;37.310;13.582;2022-11-15T17:47:49;18.70;99.90
61004;DHT22;46889;37.310;13.582;2022-11-15T17:50:15;18.70;99.90